sensor_id;sensor_type;location;lat;lon;timestamp;pressure;altitude;pressure_sealevel;temperature;humidity
20424;BME280;10371;49.042;8.002;2023-06-14T00:00:29;99347.81;;;16.16;60.25
20424;BME280;10371;49.042;8.002;2023-06-14T00:01:31;99352.88;;;16.18;60.23
20424;BME280;10371;49.042;8.002;2023-06-14T00:02:34;99352.03;;;16.25;60.20
20424;BME280;10371;49.042;8.002;2023-06-14T00:03:34;99353.97;;;16.31;59.93
20424;BME280;10371;49.042;8.002;2023-06-14T00:04:35;99349.50;;;16.40;59.66
20424;BME280;10371;49.042;8.002;2023-06-14T00:05:36;99351.09;;;16.49;59.31
20424;BME280;10371;49.042;8.002;2023-06-14T00:06:44;99348.13;;;16.52;59.26
20424;BME280;10371;49.042;8.002;2023-06-14T00:07:48;99349.38;;;16.57;59.08
20424;BME280;10371;49.042;8.002;2023-06-14T00:08:49;99349.34;;;16.65;59.16
20424;BME280;10371;49.042;8.002;2023-06-14T00:09:49;99351.47;;;16.69;58.74
20424;BME280;10371;49.042;8.002;2023-06-14T00:10:50;99357.34;;;16.71;58.58
20424;BME280;10371;49.042;8.002;2023-06-14T00:11:50;99347.44;;;16.82;58.32
20424;BME280;10371;49.042;8.002;2023-06-14T00:12:50;99352.84;;;16.88;58.01
20424;BME280;10371;49.042;8.002;2023-06-14T00:13:50;99339.34;;;16.91;57.78
20424;BME280;10371;49.042;8.002;2023-06-14T00:14:51;99348.94;;;16.99;57.83
20424;BME280;10371;49.042;8.002;2023-06-14T00:15:51;99353.41;;;16.98;57.96
20424;BME280;10371;49.042;8.002;2023-06-14T00:16:55;99352.22;;;17.01;58.00
20424;BME280;10371;49.042;8.002;2023-06-14T00:17:58;99346.50;;;16.97;58.15
20424;BME280;10371;49.042;8.002;2023-06-14T00:19:02;99347.50;;;16.96;58.03
20424;BME280;10371;49.042;8.002;2023-06-14T00:20:05;99351.78;;;16.97;57.96
20424;BME280;10371;49.042;8.002;2023-06-14T00:21:06;99349.31;;;16.96;58.09
20424;BME280;10371;49.042;8.002;2023-06-14T00:22:07;99349.94;;;16.98;57.98
20424;BME280;10371;49.042;8.002;2023-06-14T00:23:07;99348.13;;;16.98;57.78
20424;BME280;10371;49.042;8.002;2023-06-14T00:24:07;99343.69;;;16.99;57.97
20424;BME280;10371;49.042;8.002;2023-06-14T00:25:08;99352.41;;;17.00;58.15
20424;BME280;10371;49.042;8.002;2023-06-14T00:26:08;99350.75;;;16.98;58.12
20424;BME280;10371;49.042;8.002;2023-06-14T00:27:08;99354.56;;;16.96;58.21
20424;BME280;10371;49.042;8.002;2023-06-14T00:28:08;99354.56;;;16.96;58.28
20424;BME280;10371;49.042;8.002;2023-06-14T00:29:09;99350.47;;;16.93;58.24
20424;BME280;10371;49.042;8.002;2023-06-14T00:30:09;99351.19;;;16.87;58.56
20424;BME280;10371;49.042;8.002;2023-06-14T00:31:10;99344.66;;;16.83;58.62
20424;BME280;10371;49.042;8.002;2023-06-14T00:32:10;99346.28;;;16.84;58.79
20424;BME280;10371;49.042;8.002;2023-06-14T00:33:10;99343.00;;;16.82;58.74
20424;BME280;10371;49.042;8.002;2023-06-14T00:34:11;99343.50;;;16.86;58.44
20424;BME280;10371;49.042;8.002;2023-06-14T00:35:11;99344.59;;;16.91;58.30
20424;BME280;10371;49.042;8.002;2023-06-14T00:36:12;99344.25;;;16.94;58.24
20424;BME280;10371;49.042;8.002;2023-06-14T00:37:12;99336.41;;;16.86;58.55
20424;BME280;10371;49.042;8.002;2023-06-14T00:38:13;99344.94;;;16.88;58.60
20424;BME280;10371;49.042;8.002;2023-06-14T00:39:13;99350.00;;;16.90;58.45
20424;BME280;10371;49.042;8.002;2023-06-14T00:40:13;99347.69;;;16.95;58.29
20424;BME280;10371;49.042;8.002;2023-06-14T00:41:13;99344.94;;;16.88;58.51
20424;BME280;10371;49.042;8.002;2023-06-14T00:42:24;99350.38;;;16.87;58.59
20424;BME280;10371;49.042;8.002;2023-06-14T00:43:25;99344.41;;;16.93;58.62
20424;BME280;10371;49.042;8.002;2023-06-14T00:44:25;99348.75;;;16.86;58.85
20424;BME280;10371;49.042;8.002;2023-06-14T00:45:26;99345.63;;;16.82;58.89
20424;BME280;10371;49.042;8.002;2023-06-14T00:46:26;99351.09;;;16.81;59.06
20424;BME280;10371;49.042;8.002;2023-06-14T00:47:26;99352.72;;;16.82;59.08
20424;BME280;10371;49.042;8.002;2023-06-14T00:48:28;99353.88;;;16.79;58.99
20424;BME280;10371;49.042;8.002;2023-06-14T00:49:29;99353.53;;;16.74;59.12
20424;BME280;10371;49.042;8.002;2023-06-14T00:50:29;99352.56;;;16.75;59.14
20424;BME280;10371;49.042;8.002;2023-06-14T00:51:32;99351.56;;;16.76;59.19
20424;BME280;10371;49.042;8.002;2023-06-14T00:52:32;99350.91;;;16.74;59.16
20424;BME280;10371;49.042;8.002;2023-06-14T00:53:33;99351.91;;;16.73;59.17
20424;BME280;10371;49.042;8.002;2023-06-14T00:54:35;99347.31;;;16.75;59.15
20424;BME280;10371;49.042;8.002;2023-06-14T00:55:36;99357.00;;;16.83;58.92
20424;BME280;10371;49.042;8.002;2023-06-14T00:56:36;99365.50;;;16.85;58.80
20424;BME280;10371;49.042;8.002;2023-06-14T00:57:37;99349.25;;;16.81;58.92
20424;BME280;10371;49.042;8.002;2023-06-14T00:58:37;99363.88;;;16.84;58.97
20424;BME280;10371;49.042;8.002;2023-06-14T00:59:42;99363.09;;;16.75;59.29
20424;BME280;10371;49.042;8.002;2023-06-14T01:00:42;99358.69;;;16.67;59.57
20424;BME280;10371;49.042;8.002;2023-06-14T01:01:44;99360.97;;;16.70;59.31
20424;BME280;10371;49.042;8.002;2023-06-14T01:02:45;99361.63;;;16.72;59.35
20424;BME280;10371;49.042;8.002;2023-06-14T01:03:45;99360.16;;;16.70;59.39
20424;BME280;10371;49.042;8.002;2023-06-14T01:04:47;99359.69;;;16.66;59.67
20424;BME280;10371;49.042;8.002;2023-06-14T01:06:05;99364.94;;;16.66;59.51
20424;BME280;10371;49.042;8.002;2023-06-14T01:07:28;99363.13;;;16.67;59.59
20424;BME280;10371;49.042;8.002;2023-06-14T01:08:40;99358.84;;;16.66;59.67
20424;BME280;10371;49.042;8.002;2023-06-14T01:10:09;99364.66;;;16.61;59.79
20424;BME280;10371;49.042;8.002;2023-06-14T01:11:18;99365.81;;;16.59;59.69
20424;BME280;10371;49.042;8.002;2023-06-14T01:12:32;99362.03;;;16.61;59.89
20424;BME280;10371;49.042;8.002;2023-06-14T01:13:37;99364.66;;;16.61;59.73
20424;BME280;10371;49.042;8.002;2023-06-14T01:14:39;99364.47;;;16.63;59.56
20424;BME280;10371;49.042;8.002;2023-06-14T01:15:43;99364.50;;;16.54;60.06
20424;BME280;10371;49.042;8.002;2023-06-14T01:16:43;99360.25;;;16.53;60.21
20424;BME280;10371;49.042;8.002;2023-06-14T01:17:45;99372.44;;;16.46;60.63
20424;BME280;10371;49.042;8.002;2023-06-14T01:18:47;99370.84;;;16.37;61.16
20424;BME280;10371;49.042;8.002;2023-06-14T01:19:51;99369.06;;;16.29;61.41
20424;BME280;10371;49.042;8.002;2023-06-14T01:20:57;99367.34;;;16.22;61.83
20424;BME280;10371;49.042;8.002;2023-06-14T01:22:00;99370.81;;;16.14;62.18
20424;BME280;10371;49.042;8.002;2023-06-14T01:23:00;99375.94;;;16.07;62.32
20424;BME280;10371;49.042;8.002;2023-06-14T01:24:01;99366.09;;;16.01;62.25
20424;BME280;10371;49.042;8.002;2023-06-14T01:25:03;99367.41;;;16.05;62.01
20424;BME280;10371;49.042;8.002;2023-06-14T01:26:04;99364.94;;;16.04;62.35
20424;BME280;10371;49.042;8.002;2023-06-14T01:27:05;99367.09;;;16.00;62.39
20424;BME280;10371;49.042;8.002;2023-06-14T01:28:07;99366.63;;;15.97;62.66
20424;BME280;10371;49.042;8.002;2023-06-14T01:29:12;99362.84;;;15.91;62.84
20424;BME280;10371;49.042;8.002;2023-06-14T01:30:17;99372.69;;;15.89;62.91
20424;BME280;10371;49.042;8.002;2023-06-14T01:31:21;99366.78;;;15.87;62.90
20424;BME280;10371;49.042;8.002;2023-06-14T01:32:25;99367.44;;;15.89;62.72
20424;BME280;10371;49.042;8.002;2023-06-14T01:33:27;99374.34;;;15.90;62.49
20424;BME280;10371;49.042;8.002;2023-06-14T01:34:27;99368.75;;;15.93;62.68
20424;BME280;10371;49.042;8.002;2023-06-14T01:35:28;99369.59;;;15.94;62.46
20424;BME280;10371;49.042;8.002;2023-06-14T01:36:28;99369.25;;;15.97;62.29
20424;BME280;10371;49.042;8.002;2023-06-14T01:37:29;99368.25;;;15.98;62.29
20424;BME280;10371;49.042;8.002;2023-06-14T01:38:30;99370.06;;;15.97;62.48
20424;BME280;10371;49.042;8.002;2023-06-14T01:39:32;99364.00;;;15.97;62.39
20424;BME280;10371;49.042;8.002;2023-06-14T01:40:34;99375.13;;;15.99;62.32
20424;BME280;10371;49.042;8.002;2023-06-14T01:41:35;99371.88;;;15.97;62.52
20424;BME280;10371;49.042;8.002;2023-06-14T01:42:37;99370.72;;;15.99;62.36
20424;BME280;10371;49.042;8.002;2023-06-14T01:43:39;99373.47;;;16.06;61.99
20424;BME280;10371;49.042;8.002;2023-06-14T01:44:42;99365.13;;;16.02;62.01
20424;BME280;10371;49.042;8.002;2023-06-14T01:45:44;99366.06;;;16.09;61.88
20424;BME280;10371;49.042;8.002;2023-06-14T01:46:45;99369.50;;;16.10;61.83
20424;BME280;10371;49.042;8.002;2023-06-14T01:47:46;99376.06;;;16.14;61.72
20424;BME280;10371;49.042;8.002;2023-06-14T01:48:47;99374.59;;;16.12;61.77
20424;BME280;10371;49.042;8.002;2023-06-14T01:49:48;99369.19;;;16.13;61.84
20424;BME280;10371;49.042;8.002;2023-06-14T01:50:49;99375.59;;;16.11;61.95
20424;BME280;10371;49.042;8.002;2023-06-14T01:51:50;99376.41;;;16.11;61.61
20424;BME280;10371;49.042;8.002;2023-06-14T01:52:50;99378.22;;;16.11;61.80
20424;BME280;10371;49.042;8.002;2023-06-14T01:53:50;99382.47;;;16.12;61.75
20424;BME280;10371;49.042;8.002;2023-06-14T01:54:51;99377.22;;;16.12;61.92
20424;BME280;10371;49.042;8.002;2023-06-14T01:55:51;99374.94;;;16.08;62.02
20424;BME280;10371;49.042;8.002;2023-06-14T01:56:54;99383.50;;;16.02;62.15
20424;BME280;10371;49.042;8.002;2023-06-14T01:57:54;99377.72;;;16.07;61.90
20424;BME280;10371;49.042;8.002;2023-06-14T01:58:54;99383.47;;;16.11;61.92
20424;BME280;10371;49.042;8.002;2023-06-14T01:59:55;99378.56;;;16.07;61.90
20424;BME280;10371;49.042;8.002;2023-06-14T02:00:56;99373.63;;;16.04;62.13
20424;BME280;10371;49.042;8.002;2023-06-14T02:01:56;99378.59;;;15.99;62.42
20424;BME280;10371;49.042;8.002;2023-06-14T02:02:57;99379.25;;;15.93;62.56
20424;BME280;10371;49.042;8.002;2023-06-14T02:03:57;99371.88;;;15.89;62.59
20424;BME280;10371;49.042;8.002;2023-06-14T02:04:57;99368.75;;;15.93;62.57
20424;BME280;10371;49.042;8.002;2023-06-14T02:05:58;99374.00;;;15.93;62.52
20424;BME280;10371;49.042;8.002;2023-06-14T02:06:58;99374.47;;;16.05;61.98
20424;BME280;10371;49.042;8.002;2023-06-14T02:07:59;99372.81;;;16.04;62.09
20424;BME280;10371;49.042;8.002;2023-06-14T02:09:00;99372.31;;;16.08;62.13
20424;BME280;10371;49.042;8.002;2023-06-14T02:10:01;99369.03;;;16.06;61.86
20424;BME280;10371;49.042;8.002;2023-06-14T02:11:01;99373.59;;;16.13;61.71
20424;BME280;10371;49.042;8.002;2023-06-14T02:12:02;99371.63;;;16.15;61.57
20424;BME280;10371;49.042;8.002;2023-06-14T02:13:02;99375.06;;;16.15;61.49
20424;BME280;10371;49.042;8.002;2023-06-14T02:14:02;99375.72;;;16.17;61.64
20424;BME280;10371;49.042;8.002;2023-06-14T02:15:03;99377.88;;;16.14;61.81
20424;BME280;10371;49.042;8.002;2023-06-14T02:16:04;99375.72;;;16.17;61.77
20424;BME280;10371;49.042;8.002;2023-06-14T02:17:04;99377.69;;;16.15;61.90
20424;BME280;10371;49.042;8.002;2023-06-14T02:18:06;99369.19;;;16.13;61.80
20424;BME280;10371;49.042;8.002;2023-06-14T02:19:06;99382.47;;;16.12;61.73
20424;BME280;10371;49.042;8.002;2023-06-14T02:20:07;99378.69;;;16.14;61.64
20424;BME280;10371;49.042;8.002;2023-06-14T02:21:08;99374.56;;;16.20;61.33
20424;BME280;10371;49.042;8.002;2023-06-14T02:22:09;99378.47;;;16.24;61.22
20424;BME280;10371;49.042;8.002;2023-06-14T02:23:09;99377.66;;;16.23;61.43
20424;BME280;10371;49.042;8.002;2023-06-14T02:24:09;99376.53;;;16.18;61.55
20424;BME280;10371;49.042;8.002;2023-06-14T02:25:10;99380.28;;;16.23;61.64
20424;BME280;10371;49.042;8.002;2023-06-14T02:26:10;99376.03;;;16.22;61.60
20424;BME280;10371;49.042;8.002;2023-06-14T02:27:10;99377.53;;;16.17;61.71
20424;BME280;10371;49.042;8.002;2023-06-14T02:28:11;99376.56;;;16.09;62.04
20424;BME280;10371;49.042;8.002;2023-06-14T02:29:11;99379.03;;;16.11;61.84
20424;BME280;10371;49.042;8.002;2023-06-14T02:30:14;99380.16;;;16.17;61.55
20424;BME280;10371;49.042;8.002;2023-06-14T02:31:15;99384.59;;;16.16;61.38
20424;BME280;10371;49.042;8.002;2023-06-14T02:32:16;99384.59;;;16.16;61.48
20424;BME280;10371;49.042;8.002;2023-06-14T02:33:16;99382.31;;;16.13;61.79
20424;BME280;10371;49.042;8.002;2023-06-14T02:34:17;99377.91;;;16.05;62.06
20424;BME280;10371;49.042;8.002;2023-06-14T02:35:18;99386.75;;;16.04;62.00
20424;BME280;10371;49.042;8.002;2023-06-14T02:36:18;99379.41;;;16.00;62.17
20424;BME280;10371;49.042;8.002;2023-06-14T02:37:19;99383.00;;;15.99;62.19
20424;BME280;10371;49.042;8.002;2023-06-14T02:38:19;99377.91;;;16.05;61.96
20424;BME280;10371;49.042;8.002;2023-06-14T02:39:19;99382.84;;;16.00;62.08
20424;BME280;10371;49.042;8.002;2023-06-14T02:40:21;99383.00;;;15.99;62.17
20424;BME280;10371;49.042;8.002;2023-06-14T02:41:21;99380.38;;;15.99;62.14
20424;BME280;10371;49.042;8.002;2023-06-14T02:42:21;99386.63;;;15.98;62.13
20424;BME280;10371;49.042;8.002;2023-06-14T02:43:21;99380.72;;;15.96;62.34
20424;BME280;10371;49.042;8.002;2023-06-14T02:44:25;99383.53;;;15.94;62.32
20424;BME280;10371;49.042;8.002;2023-06-14T02:45:27;99381.53;;;15.96;62.17
20424;BME280;10371;49.042;8.002;2023-06-14T02:46:27;99384.16;;;15.96;62.14
20424;BME280;10371;49.042;8.002;2023-06-14T02:47:27;99376.63;;;15.93;62.25
20424;BME280;10371;49.042;8.002;2023-06-14T02:48:28;99378.63;;;15.91;62.39
20424;BME280;10371;49.042;8.002;2023-06-14T02:49:28;99381.25;;;15.91;62.43
20424;BME280;10371;49.042;8.002;2023-06-14T02:50:29;99381.25;;;15.91;62.67
20424;BME280;10371;49.042;8.002;2023-06-14T02:51:30;99380.41;;;15.91;62.58
20424;BME280;10371;49.042;8.002;2023-06-14T02:52:30;99379.56;;;15.90;62.50
20424;BME280;10371;49.042;8.002;2023-06-14T02:53:33;99383.03;;;15.91;62.54
20424;BME280;10371;49.042;8.002;2023-06-14T02:54:33;99383.19;;;15.89;62.57
20424;BME280;10371;49.042;8.002;2023-06-14T02:55:33;99385.81;;;15.89;62.71
20424;BME280;10371;49.042;8.002;2023-06-14T02:56:39;99386.16;;;15.86;62.77
20424;BME280;10371;49.042;8.002;2023-06-14T02:57:39;99383.69;;;15.84;62.75
20424;BME280;10371;49.042;8.002;2023-06-14T02:58:39;99388.47;;;15.81;62.97
20424;BME280;10371;49.042;8.002;2023-06-14T02:59:40;99380.59;;;15.81;62.90
20424;BME280;10371;49.042;8.002;2023-06-14T03:00:42;99384.22;;;15.80;62.92
20424;BME280;10371;49.042;8.002;2023-06-14T03:01:42;99387.81;;;15.79;62.93
20424;BME280;10371;49.042;8.002;2023-06-14T03:02:42;99382.41;;;15.80;62.67
20424;BME280;10371;49.042;8.002;2023-06-14T03:03:43;99380.94;;;15.78;62.80
20424;BME280;10371;49.042;8.002;2023-06-14T03:04:43;99383.91;;;15.75;63.01
20424;BME280;10371;49.042;8.002;2023-06-14T03:05:46;99384.72;;;15.75;62.88
20424;BME280;10371;49.042;8.002;2023-06-14T03:06:47;99386.53;;;15.75;62.86
20424;BME280;10371;49.042;8.002;2023-06-14T03:07:50;99379.16;;;15.70;62.88
20424;BME280;10371;49.042;8.002;2023-06-14T03:08:50;99378.97;;;15.63;63.14
20424;BME280;10371;49.042;8.002;2023-06-14T03:09:51;99390.09;;;15.65;63.28
20424;BME280;10371;49.042;8.002;2023-06-14T03:10:52;99387.31;;;15.67;63.25
20424;BME280;10371;49.042;8.002;2023-06-14T03:11:53;99386.66;;;15.65;63.36
20424;BME280;10371;49.042;8.002;2023-06-14T03:12:53;99385.03;;;15.64;63.39
20424;BME280;10371;49.042;8.002;2023-06-14T03:13:53;99387.00;;;15.62;63.28
20424;BME280;10371;49.042;8.002;2023-06-14T03:14:55;99388.97;;;15.60;63.31
20424;BME280;10371;49.042;8.002;2023-06-14T03:15:57;99387.19;;;15.69;63.01
20424;BME280;10371;49.042;8.002;2023-06-14T03:16:57;99386.69;;;15.73;62.59
20424;BME280;10371;49.042;8.002;2023-06-14T03:17:57;99385.38;;;15.77;62.33
20424;BME280;10371;49.042;8.002;2023-06-14T03:18:59;99384.38;;;15.78;62.44
20424;BME280;10371;49.042;8.002;2023-06-14T03:20:00;99386.84;;;15.80;62.53
20424;BME280;10371;49.042;8.002;2023-06-14T03:21:02;99391.44;;;15.78;62.64
20424;BME280;10371;49.042;8.002;2023-06-14T03:22:02;99388.97;;;15.76;62.72
20424;BME280;10371;49.042;8.002;2023-06-14T03:23:03;99389.81;;;15.77;62.54
20424;BME280;10371;49.042;8.002;2023-06-14T03:24:05;99394.56;;;15.73;62.74
20424;BME280;10371;49.042;8.002;2023-06-14T03:25:06;99397.38;;;15.72;62.76
20424;BME280;10371;49.042;8.002;2023-06-14T03:26:06;99399.00;;;15.73;62.65
20424;BME280;10371;49.042;8.002;2023-06-14T03:27:06;99394.09;;;15.70;62.65
20424;BME280;10371;49.042;8.002;2023-06-14T03:28:07;99396.00;;;15.68;62.83
20424;BME280;10371;49.042;8.002;2023-06-14T03:29:08;99394.56;;;15.73;62.47
20424;BME280;10371;49.042;8.002;2023-06-14T03:30:08;99393.75;;;15.73;62.75
20424;BME280;10371;49.042;8.002;2023-06-14T03:31:09;99397.38;;;15.72;62.77
20424;BME280;10371;49.042;8.002;2023-06-14T03:32:09;99399.19;;;15.71;62.81
20424;BME280;10371;49.042;8.002;2023-06-14T03:33:10;99397.69;;;15.69;62.85
20424;BME280;10371;49.042;8.002;2023-06-14T03:34:10;99402.94;;;15.69;62.83
20424;BME280;10371;49.042;8.002;2023-06-14T03:35:10;99394.09;;;15.70;62.86
20424;BME280;10371;49.042;8.002;2023-06-14T03:36:17;99403.44;;;15.72;62.87
20424;BME280;10371;49.042;8.002;2023-06-14T03:37:17;99402.63;;;15.72;62.84
20424;BME280;10371;49.042;8.002;2023-06-14T03:38:18;99397.81;;;15.67;63.06
20424;BME280;10371;49.042;8.002;2023-06-14T03:39:19;99405.03;;;15.65;63.18
20424;BME280;10371;49.042;8.002;2023-06-14T03:40:20;99399.63;;;15.67;62.92
20424;BME280;10371;49.042;8.002;2023-06-14T03:41:21;99404.06;;;15.66;63.09
20424;BME280;10371;49.042;8.002;2023-06-14T03:42:22;99405.69;;;15.67;63.35
20424;BME280;10371;49.042;8.002;2023-06-14T03:43:22;99409.31;;;15.66;63.42
20424;BME280;10371;49.042;8.002;2023-06-14T03:44:22;99407.34;;;15.60;63.55
20424;BME280;10371;49.042;8.002;2023-06-14T03:45:22;99406.84;;;15.56;63.72
20424;BME280;10371;49.042;8.002;2023-06-14T03:46:23;99409.81;;;15.53;63.74
20424;BME280;10371;49.042;8.002;2023-06-14T03:47:23;99411.28;;;15.56;63.49
20424;BME280;10371;49.042;8.002;2023-06-14T03:48:23;99411.28;;;15.56;63.38
20424;BME280;10371;49.042;8.002;2023-06-14T03:49:24;99418.81;;;15.59;63.06
20424;BME280;10371;49.042;8.002;2023-06-14T03:50:24;99425.41;;;15.63;62.97
20424;BME280;10371;49.042;8.002;2023-06-14T03:51:24;99418.50;;;15.62;63.29
20424;BME280;10371;49.042;8.002;2023-06-14T03:52:25;99417.69;;;15.61;63.47
20424;BME280;10371;49.042;8.002;2023-06-14T03:53:26;99420.44;;;15.60;63.55
20424;BME280;10371;49.042;8.002;2023-06-14T03:54:28;99418.81;;;15.59;63.55
20424;BME280;10371;49.042;8.002;2023-06-14T03:55:28;99419.50;;;15.61;63.53
20424;BME280;10371;49.042;8.002;2023-06-14T03:56:31;99423.59;;;15.63;63.57
20424;BME280;10371;49.042;8.002;2023-06-14T03:57:31;99430.31;;;15.66;63.55
20424;BME280;10371;49.042;8.002;2023-06-14T03:58:31;99425.06;;;15.66;63.62
20424;BME280;10371;49.042;8.002;2023-06-14T03:59:32;99423.94;;;15.69;63.31
20424;BME280;10371;49.042;8.002;2023-06-14T04:00:32;99426.38;;;15.70;63.59
20424;BME280;10371;49.042;8.002;2023-06-14T04:01:32;99426.88;;;15.74;63.49
20424;BME280;10371;49.042;8.002;2023-06-14T04:02:33;99426.22;;;15.72;63.66
20424;BME280;10371;49.042;8.002;2023-06-14T04:03:34;99432.44;;;15.71;63.88
20424;BME280;10371;49.042;8.002;2023-06-14T04:04:34;99436.41;;;15.75;63.89
20424;BME280;10371;49.042;8.002;2023-06-14T04:05:35;99430.97;;;15.76;63.80
20424;BME280;10371;49.042;8.002;2023-06-14T04:06:36;99433.44;;;15.78;63.86
20424;BME280;10371;49.042;8.002;2023-06-14T04:07:36;99431.47;;;15.80;63.71
20424;BME280;10371;49.042;8.002;2023-06-14T04:08:40;99437.19;;;15.83;63.36
20424;BME280;10371;49.042;8.002;2023-06-14T04:09:42;99435.22;;;15.85;63.48
20424;BME280;10371;49.042;8.002;2023-06-14T04:10:42;99439.47;;;15.86;63.41
20424;BME280;10371;49.042;8.002;2023-06-14T04:11:43;99435.38;;;15.92;63.47
20424;BME280;10371;49.042;8.002;2023-06-14T04:12:43;99435.84;;;15.96;63.25
20424;BME280;10371;49.042;8.002;2023-06-14T04:13:44;99442.41;;;16.00;63.45
20424;BME280;10371;49.042;8.002;2023-06-14T04:14:44;99437.81;;;16.02;63.41
20424;BME280;10371;49.042;8.002;2023-06-14T04:15:44;99444.38;;;15.98;63.43
20424;BME280;10371;49.042;8.002;2023-06-14T04:16:46;99444.22;;;15.99;63.77
20424;BME280;10371;49.042;8.002;2023-06-14T04:17:47;99439.13;;;15.98;63.79
20424;BME280;10371;49.042;8.002;2023-06-14T04:18:47;99442.91;;;15.95;63.78
20424;BME280;10371;49.042;8.002;2023-06-14T04:19:48;99445.19;;;15.98;63.82
20424;BME280;10371;49.042;8.002;2023-06-14T04:20:48;99441.41;;;16.01;63.66
20424;BME280;10371;49.042;8.002;2023-06-14T04:21:50;99452.56;;;16.03;63.48
20424;BME280;10371;49.042;8.002;2023-06-14T04:22:51;99449.63;;;16.06;63.63
20424;BME280;10371;49.042;8.002;2023-06-14T04:23:52;99451.09;;;16.08;63.51
20424;BME280;10371;49.042;8.002;2023-06-14T04:24:52;99456.16;;;16.10;63.56
20424;BME280;10371;49.042;8.002;2023-06-14T04:25:53;99449.13;;;16.11;63.84
20424;BME280;10371;49.042;8.002;2023-06-14T04:26:53;99457.00;;;16.11;63.86
20424;BME280;10371;49.042;8.002;2023-06-14T04:27:54;99451.41;;;16.14;64.03
20424;BME280;10371;49.042;8.002;2023-06-14T04:28:56;99458.13;;;16.16;63.88
20424;BME280;10371;49.042;8.002;2023-06-14T04:29:56;99462.22;;;16.19;63.86
20424;BME280;10371;49.042;8.002;2023-06-14T04:30:58;99461.53;;;16.25;63.65
20424;BME280;10371;49.042;8.002;2023-06-14T04:32:01;99463.34;;;16.33;63.83
20424;BME280;10371;49.042;8.002;2023-06-14T04:33:01;99460.19;;;16.37;64.16
20424;BME280;10371;49.042;8.002;2023-06-14T04:34:05;99463.34;;;16.33;65.11
20424;BME280;10371;49.042;8.002;2023-06-14T04:35:07;99460.88;;;16.31;65.46
20424;BME280;10371;49.042;8.002;2023-06-14T04:36:07;99467.75;;;16.32;65.38
20424;BME280;10371;49.042;8.002;2023-06-14T04:37:08;99464.16;;;16.33;65.74
20424;BME280;10371;49.042;8.002;2023-06-14T04:38:08;99467.91;;;16.39;65.57
20424;BME280;10371;49.042;8.002;2023-06-14T04:39:09;99465.91;;;16.41;65.50
20424;BME280;10371;49.042;8.002;2023-06-14T04:40:09;99463.25;;;16.49;65.40
20424;BME280;10371;49.042;8.002;2023-06-14T04:41:10;99466.81;;;16.64;65.39
20424;BME280;10371;49.042;8.002;2023-06-14T04:42:11;99467.56;;;16.81;65.20
20424;BME280;10371;49.042;8.002;2023-06-14T04:43:13;99477.03;;;16.90;65.05
20424;BME280;10371;49.042;8.002;2023-06-14T04:44:17;99469.19;;;17.13;64.94
20424;BME280;10371;49.042;8.002;2023-06-14T04:45:18;99471.81;;;17.36;64.22
20424;BME280;10371;49.042;8.002;2023-06-14T04:46:19;99471.97;;;17.58;63.30
20424;BME280;10371;49.042;8.002;2023-06-14T04:47:20;99473.47;;;17.75;62.67
20424;BME280;10371;49.042;8.002;2023-06-14T04:48:21;99460.09;;;17.77;62.03
20424;BME280;10371;49.042;8.002;2023-06-14T04:49:22;99467.69;;;17.80;61.37
20424;BME280;10371;49.042;8.002;2023-06-14T04:50:23;99468.53;;;17.80;61.70
20424;BME280;10371;49.042;8.002;2023-06-14T04:51:24;99479.06;;;17.95;61.78
20424;BME280;10371;49.042;8.002;2023-06-14T04:52:29;99471.63;;;18.14;61.33
20424;BME280;10371;49.042;8.002;2023-06-14T04:53:30;99470.72;;;18.21;60.70
20424;BME280;10371;49.042;8.002;2023-06-14T04:54:31;99472.91;;;18.03;60.83
20424;BME280;10371;49.042;8.002;2023-06-14T04:55:34;99477.44;;;18.09;61.06
20424;BME280;10371;49.042;8.002;2023-06-14T04:56:36;99474.59;;;17.96;61.28
20424;BME280;10371;49.042;8.002;2023-06-14T04:57:37;99475.09;;;18.14;61.13
20424;BME280;10371;49.042;8.002;2023-06-14T04:58:38;99484.53;;;18.08;60.82
20424;BME280;10371;49.042;8.002;2023-06-14T04:59:39;99485.50;;;17.93;61.03
20424;BME280;10371;49.042;8.002;2023-06-14T05:00:39;99482.72;;;18.09;61.14
20424;BME280;10371;49.042;8.002;2023-06-14T05:01:39;99479.97;;;18.02;60.83
20424;BME280;10371;49.042;8.002;2023-06-14T05:02:40;99481.41;;;18.05;60.85
20424;BME280;10371;49.042;8.002;2023-06-14T05:03:40;99481.34;;;18.13;60.91
20424;BME280;10371;49.042;8.002;2023-06-14T05:04:41;99491.63;;;18.08;60.90
20424;BME280;10371;49.042;8.002;2023-06-14T05:05:41;99485.34;;;18.09;60.91
20424;BME280;10371;49.042;8.002;2023-06-14T05:06:42;99486.34;;;18.08;60.94
20424;BME280;10371;49.042;8.002;2023-06-14T05:07:48;99483.78;;;18.29;60.61
20424;BME280;10371;49.042;8.002;2023-06-14T05:08:48;99488.44;;;18.27;60.38
20424;BME280;10371;49.042;8.002;2023-06-14T05:09:48;99481.97;;;18.30;60.02
20424;BME280;10371;49.042;8.002;2023-06-14T05:10:49;99486.97;;;18.40;60.00
20424;BME280;10371;49.042;8.002;2023-06-14T05:11:49;99485.03;;;18.63;59.83
20424;BME280;10371;49.042;8.002;2023-06-14T05:12:50;99484.25;;;18.48;59.59
20424;BME280;10371;49.042;8.002;2023-06-14T05:13:50;99482.00;;;18.45;59.45
20424;BME280;10371;49.042;8.002;2023-06-14T05:14:51;99487.53;;;18.50;59.74
20424;BME280;10371;49.042;8.002;2023-06-14T05:15:51;99490.31;;;18.63;59.41
20424;BME280;10371;49.042;8.002;2023-06-14T05:16:53;99485.78;;;18.57;59.68
20424;BME280;10371;49.042;8.002;2023-06-14T05:17:53;99490.97;;;18.50;59.88
20424;BME280;10371;49.042;8.002;2023-06-14T05:18:55;99490.94;;;18.80;59.78
20424;BME280;10371;49.042;8.002;2023-06-14T05:19:56;99495.47;;;19.01;60.06
20424;BME280;10371;49.042;8.002;2023-06-14T05:20:56;99489.88;;;18.74;59.63
20424;BME280;10371;49.042;8.002;2023-06-14T05:21:57;99490.13;;;18.80;59.69
20424;BME280;10371;49.042;8.002;2023-06-14T05:22:57;99490.94;;;18.80;59.15
20424;BME280;10371;49.042;8.002;2023-06-14T05:23:58;99487.13;;;18.83;59.53
20424;BME280;10371;49.042;8.002;2023-06-14T05:24:59;99489.91;;;18.96;59.33